createdAt,value
2022-09-25T00:00:31.952Z,33.81
2022-09-25T00:01:33.685Z,33.75
2022-09-25T00:02:35.584Z,33.86
2022-09-25T00:03:37.942Z,33.71
2022-09-25T00:04:39.736Z,33.95
2022-09-25T00:05:43.875Z,33.87
2022-09-25T00:06:48.233Z,33.69
2022-09-25T00:07:49.940Z,33.85
2022-09-25T00:08:52.587Z,33.86
2022-09-25T00:09:54.324Z,33.77
2022-09-25T00:10:56.069Z,33.92
2022-09-25T00:11:57.823Z,34.08
2022-09-25T00:13:00.009Z,34.08
2022-09-25T00:14:02.153Z,33.72
2022-09-25T00:15:05.448Z,33.60
2022-09-25T00:16:10.593Z,34.26
2022-09-25T00:17:12.525Z,33.83
2022-09-25T00:18:14.845Z,33.57
2022-09-25T00:19:39.860Z,33.86
2022-09-25T00:20:41.811Z,33.70
2022-09-25T00:21:43.723Z,33.78
2022-09-25T00:22:45.662Z,33.96
2022-09-25T00:23:47.855Z,33.74
2022-09-25T00:24:50.550Z,33.83
2022-09-25T00:25:56.306Z,33.96
2022-09-25T00:26:59.782Z,33.95
2022-09-25T00:28:01.760Z,33.82
2022-09-25T00:29:06.486Z,33.72
2022-09-25T00:30:09.930Z,33.86
2022-09-25T00:31:18.517Z,33.82
2022-09-25T00:32:20.372Z,33.64
2022-09-25T00:33:22.493Z,33.89
2022-09-25T00:34:24.232Z,34.07
2022-09-25T00:35:25.925Z,33.95
2022-09-25T00:36:29.075Z,34.06
2022-09-25T00:37:33.854Z,33.82
2022-09-25T00:38:37.289Z,33.87
2022-09-25T00:39:39.375Z,34.12
2022-09-25T00:40:41.321Z,33.54
2022-09-25T00:41:43.335Z,33.94
2022-09-25T00:42:45.082Z,33.76
2022-09-25T00:43:51.138Z,33.73
2022-09-25T00:45:01.020Z,33.93
2022-09-25T00:46:05.449Z,33.67
2022-09-25T00:47:08.869Z,34.27
2022-09-25T00:48:15.575Z,33.85
2022-09-25T00:49:24.948Z,33.98
2022-09-25T00:50:52.967Z,34.24
2022-09-25T00:52:03.130Z,33.76
2022-09-25T00:53:34.366Z,33.64
2022-09-25T00:54:45.273Z,33.59
2022-09-25T00:55:47.635Z,33.54
2022-09-25T00:56:51.691Z,33.87
2022-09-25T00:57:56.771Z,33.84
2022-09-25T00:58:59.037Z,33.81
2022-09-25T01:00:12.815Z,34.25
2022-09-25T01:01:14.861Z,34.04
2022-09-25T01:02:25.189Z,33.99
2022-09-25T01:03:27.559Z,33.99
2022-09-25T01:04:34.648Z,33.94
2022-09-25T01:05:41.933Z,34.25
2022-09-25T01:06:44.459Z,33.98
2022-09-25T01:07:49.263Z,34.06
2022-09-25T01:08:51.292Z,33.61
2022-09-25T01:09:59.508Z,33.78
2022-09-25T01:11:01.843Z,34.19
2022-09-25T01:12:03.597Z,33.84
2022-09-25T01:13:06.423Z,34.49
2022-09-25T01:14:10.128Z,33.88
2022-09-25T01:15:15.017Z,34.10
2022-09-25T01:16:31.712Z,33.60
2022-09-25T01:17:45.659Z,33.97
2022-09-25T01:18:53.347Z,33.61
2022-09-25T01:20:24.056Z,34.00
2022-09-25T01:21:38.475Z,33.69
2022-09-25T01:23:24.576Z,34.03
2022-09-25T01:24:42.938Z,33.60
2022-09-25T01:26:13.622Z,33.73
2022-09-25T01:27:39.438Z,33.33
2022-09-25T01:28:54.614Z,34.15
2022-09-25T01:30:11.260Z,33.63
2022-09-25T01:31:22.375Z,33.70
2022-09-25T01:32:29.691Z,34.15
2022-09-25T01:33:35.196Z,33.81
2022-09-25T01:34:58.210Z,34.35
2022-09-25T01:36:14.054Z,34.05
2022-09-25T01:37:34.030Z,34.04
2022-09-25T01:38:44.743Z,34.54
2022-09-25T01:40:02.054Z,34.34
2022-09-25T01:41:28.584Z,34.17
2022-09-25T01:42:40.550Z,34.11
2022-09-25T01:44:20.816Z,34.02
2022-09-25T01:45:29.684Z,33.95
2022-09-25T01:46:37.557Z,34.15
2022-09-25T01:47:39.695Z,34.08
2022-09-25T01:48:43.920Z,34.11
2022-09-25T01:49:50.429Z,34.10
2022-09-25T01:51:24.820Z,33.90
2022-09-25T01:52:37.806Z,34.12
2022-09-25T01:53:47.971Z,33.91
2022-09-25T01:54:55.045Z,34.12
2022-09-25T01:56:01.972Z,34.42
2022-09-25T01:57:16.156Z,34.16
2022-09-25T01:58:27.567Z,34.42
2022-09-25T01:59:47.875Z,34.14
2022-09-25T02:00:57.004Z,33.80
2022-09-25T02:02:04.171Z,34.26
2022-09-25T02:03:16.750Z,34.30
2022-09-25T02:04:44.842Z,34.10
2022-09-25T02:05:52.207Z,34.23
2022-09-25T02:06:57.961Z,34.79
2022-09-25T02:08:08.764Z,34.15
2022-09-25T02:09:16.494Z,34.33
2022-09-25T02:10:23.427Z,33.77
2022-09-25T02:11:31.661Z,34.45
2022-09-25T02:12:40.957Z,34.31
2022-09-25T02:13:49.647Z,33.89
2022-09-25T02:14:59.735Z,34.13
2022-09-25T02:16:07.284Z,33.91
2022-09-25T02:17:34.180Z,34.15
2022-09-25T02:18:54.991Z,33.75
2022-09-25T02:20:15.064Z,33.96
2022-09-25T02:21:19.901Z,33.84
2022-09-25T02:22:30.404Z,34.19
2022-09-25T02:23:42.707Z,34.05
2022-09-25T02:24:55.244Z,34.48
2022-09-25T02:26:14.823Z,33.96
2022-09-25T02:27:20.452Z,34.30
2022-09-25T02:28:23.475Z,34.35
2022-09-25T02:29:25.552Z,34.18
2022-09-25T02:30:27.492Z,34.14
2022-09-25T02:31:36.917Z,34.12
2022-09-25T02:32:38.714Z,34.25
2022-09-25T02:33:41.002Z,34.10
2022-09-25T02:34:42.926Z,34.13
2022-09-25T02:35:44.724Z,34.51
2022-09-25T02:36:46.607Z,34.24
2022-09-25T02:37:48.480Z,34.38
2022-09-25T02:38:53.702Z,34.26
2022-09-25T02:40:00.619Z,34.48
2022-09-25T02:41:15.888Z,34.54
2022-09-25T02:42:20.552Z,34.33
2022-09-25T02:43:39.488Z,34.10
2022-09-25T02:45:02.728Z,34.29
2022-09-25T02:46:13.510Z,33.84
2022-09-25T02:47:18.267Z,34.32
2022-09-25T02:48:35.684Z,34.05
2022-09-25T02:49:54.500Z,34.51
2022-09-25T02:51:45.388Z,34.27
2022-09-25T02:53:11.671Z,34.16
2022-09-25T02:54:30.015Z,34.14
2022-09-25T02:55:46.639Z,33.97
2022-09-25T02:56:54.450Z,33.90
2022-09-25T02:58:01.952Z,34.29
2022-09-25T02:59:15.811Z,34.05
2022-09-25T03:00:18.002Z,34.00
2022-09-25T03:01:24.703Z,34.34
2022-09-25T03:02:29.255Z,34.38
2022-09-25T03:03:32.552Z,34.21
2022-09-25T03:04:38.162Z,34.31
2022-09-25T03:05:40.386Z,33.94
2022-09-25T03:06:42.835Z,34.31
2022-09-25T03:08:03.330Z,34.65
2022-09-25T03:09:07.135Z,34.49
2022-09-25T03:10:09.353Z,34.37
2022-09-25T03:11:16.954Z,34.64
2022-09-25T03:12:18.838Z,33.96
2022-09-25T03:13:27.899Z,34.48
2022-09-25T03:14:29.722Z,34.31
2022-09-25T03:15:31.555Z,34.72
2022-09-25T03:16:40.843Z,34.35
2022-09-25T03:17:43.655Z,34.42
2022-09-25T03:18:46.084Z,34.39
2022-09-25T03:19:47.891Z,34.53
2022-09-25T03:20:52.847Z,34.14
2022-09-25T03:21:55.242Z,34.62
2022-09-25T03:22:57.086Z,34.19
2022-09-25T03:23:59.577Z,34.23
2022-09-25T03:25:01.255Z,34.11
2022-09-25T03:26:04.595Z,34.44
2022-09-25T03:27:06.577Z,34.17
2022-09-25T03:28:10.827Z,34.40
2022-09-25T03:29:14.850Z,34.54
2022-09-25T03:30:16.764Z,34.41
2022-09-25T03:31:18.609Z,34.35
2022-09-25T03:32:20.319Z,34.59
2022-09-25T03:33:21.993Z,34.26
2022-09-25T03:34:23.695Z,34.11
2022-09-25T03:35:26.250Z,34.70
2022-09-25T03:36:29.911Z,34.71
2022-09-25T03:37:32.429Z,34.12
2022-09-25T03:38:34.338Z,34.16
2022-09-25T03:39:36.152Z,34.17
2022-09-25T03:40:38.137Z,34.29
2022-09-25T03:41:39.863Z,34.48
2022-09-25T03:42:43.363Z,34.38
2022-09-25T03:43:45.486Z,34.65
2022-09-25T03:44:47.272Z,34.19
2022-09-25T03:45:49.037Z,34.23
2022-09-25T03:46:50.741Z,34.42
2022-09-25T03:47:52.504Z,34.55
2022-09-25T03:48:55.494Z,34.25
2022-09-25T03:49:57.232Z,34.67
2022-09-25T03:50:59.323Z,34.13
2022-09-25T03:52:01.278Z,34.50
2022-09-25T03:53:02.951Z,34.35
2022-09-25T03:54:04.777Z,34.34
2022-09-25T03:55:07.122Z,34.40
2022-09-25T03:56:12.660Z,34.55
2022-09-25T03:57:15.054Z,34.50
2022-09-25T03:58:17.172Z,34.43
2022-09-25T03:59:18.921Z,33.93
2022-09-25T04:00:20.659Z,34.51
2022-09-25T04:01:24.525Z,34.43
2022-09-25T04:02:26.342Z,34.39
2022-09-25T04:03:31.628Z,34.15
2022-09-25T04:04:33.367Z,34.03
2022-09-25T04:05:36.195Z,34.30
2022-09-25T04:06:38.006Z,34.66
2022-09-25T04:07:39.712Z,34.31
2022-09-25T04:08:41.972Z,34.06
2022-09-25T04:09:43.787Z,34.46
2022-09-25T04:10:45.472Z,34.48
2022-09-25T04:11:47.180Z,34.52
2022-09-25T04:12:48.924Z,34.26
2022-09-25T04:13:52.783Z,34.24
2022-09-25T04:14:55.195Z,34.08
2022-09-25T04:16:01.749Z,33.95
2022-09-25T04:17:03.616Z,34.49
2022-09-25T04:18:06.359Z,34.23
2022-09-25T04:19:08.253Z,34.58
2022-09-25T04:20:10.024Z,33.92
2022-09-25T04:21:13.876Z,34.56
2022-09-25T04:22:15.547Z,34.14
2022-09-25T04:23:17.856Z,34.07
2022-09-25T04:24:38.656Z,34.15
2022-09-25T04:25:40.355Z,34.54
2022-09-25T04:26:42.107Z,34.19
2022-09-25T04:27:46.406Z,34.17
2022-09-25T04:28:48.552Z,34.25
2022-09-25T04:29:50.625Z,34.33
2022-09-25T04:30:52.680Z,34.49
2022-09-25T04:32:13.123Z,34.16
2022-09-25T04:33:33.976Z,34.39
2022-09-25T04:34:35.758Z,34.25
2022-09-25T04:35:38.182Z,34.30
2022-09-25T04:36:39.856Z,34.57
2022-09-25T04:37:41.763Z,34.06
2022-09-25T04:38:44.233Z,34.15
2022-09-25T04:39:46.006Z,34.42
2022-09-25T04:40:47.939Z,34.22
2022-09-25T04:41:49.636Z,34.62
2022-09-25T04:43:02.331Z,34.22
2022-09-25T04:44:05.419Z,34.47
2022-09-25T04:45:07.575Z,34.42
2022-09-25T04:46:15.435Z,34.47
2022-09-25T04:47:25.904Z,34.05
2022-09-25T04:48:27.628Z,34.39
2022-09-25T04:49:29.416Z,34.18
2022-09-25T04:50:31.707Z,33.93
2022-09-25T04:51:36.555Z,34.41
2022-09-25T04:52:38.726Z,34.13
2022-09-25T04:53:40.722Z,34.34
2022-09-25T04:54:43.378Z,34.25
2022-09-25T04:55:46.395Z,34.34
2022-09-25T04:56:48.131Z,34.20
2022-09-25T04:57:58.757Z,34.47
2022-09-25T04:59:01.171Z,34.42
2022-09-25T05:00:04.225Z,34.46
2022-09-25T05:01:09.075Z,34.25
2022-09-25T05:02:12.028Z,34.09
2022-09-25T05:03:13.909Z,34.28
2022-09-25T05:04:16.404Z,34.28
2022-09-25T05:05:19.278Z,33.99
2022-09-25T05:06:21.523Z,34.37
2022-09-25T05:07:23.294Z,33.96
2022-09-25T05:08:25.030Z,34.55
2022-09-25T05:09:26.891Z,34.03
2022-09-25T05:10:31.198Z,34.33
2022-09-25T05:11:32.946Z,34.21
2022-09-25T05:12:35.403Z,33.95
2022-09-25T05:13:37.139Z,33.87
2022-09-25T05:14:41.221Z,34.12
2022-09-25T05:15:43.106Z,33.87
2022-09-25T05:16:46.403Z,34.60
2022-09-25T05:17:48.216Z,33.97
2022-09-25T05:18:50.291Z,34.30
2022-09-25T05:19:52.068Z,34.12
2022-09-25T05:20:54.390Z,34.55
2022-09-25T05:21:56.280Z,34.01
2022-09-25T05:22:58.523Z,34.60
2022-09-25T05:24:00.242Z,34.17
2022-09-25T05:25:01.980Z,34.39
2022-09-25T05:26:03.921Z,34.62
2022-09-25T05:27:05.661Z,34.27
2022-09-25T05:28:07.593Z,34.67
2022-09-25T05:29:10.191Z,34.01
2022-09-25T05:30:12.287Z,34.45
2022-09-25T05:31:14.012Z,34.14
2022-09-25T05:32:17.300Z,34.06
2022-09-25T05:33:21.727Z,34.33
2022-09-25T05:34:23.611Z,34.53
2022-09-25T05:35:27.891Z,34.10
2022-09-25T05:36:29.680Z,33.83
2022-09-25T05:37:31.449Z,34.56
2022-09-25T05:38:35.253Z,34.36
2022-09-25T05:39:36.901Z,34.25
2022-09-25T05:40:39.443Z,34.43
2022-09-25T05:41:41.201Z,34.23
2022-09-25T05:42:44.422Z,34.46
2022-09-25T05:43:50.263Z,34.47
2022-09-25T05:44:52.003Z,34.45
2022-09-25T05:45:55.598Z,34.32
2022-09-25T05:46:57.442Z,34.11
2022-09-25T05:48:05.033Z,34.28
2022-09-25T05:49:06.775Z,33.97
2022-09-25T05:50:10.955Z,34.22
2022-09-25T05:51:12.869Z,33.90
2022-09-25T05:52:14.764Z,34.01
2022-09-25T05:53:16.495Z,34.15
2022-09-25T05:54:18.255Z,34.38
2022-09-25T05:55:20.023Z,34.25
2022-09-25T05:56:24.869Z,34.54
2022-09-25T05:57:27.943Z,34.22
2022-09-25T05:58:31.370Z,34.45
2022-09-25T05:59:34.954Z,34.43
2022-09-25T06:00:36.693Z,34.61
2022-09-25T06:01:38.543Z,34.40
2022-09-25T06:02:40.480Z,34.11
2022-09-25T06:03:42.555Z,34.12
2022-09-25T06:04:44.352Z,34.22
2022-09-25T06:05:46.398Z,34.40
2022-09-25T06:06:48.173Z,34.37
2022-09-25T06:07:54.712Z,34.46
2022-09-25T06:08:56.507Z,34.28
2022-09-25T06:09:58.240Z,34.27
2022-09-25T06:11:01.536Z,34.47
2022-09-25T06:12:03.976Z,34.35
2022-09-25T06:13:05.872Z,34.63
2022-09-25T06:14:07.761Z,34.38
2022-09-25T06:15:09.896Z,34.75
2022-09-25T06:16:18.653Z,34.22
2022-09-25T06:17:20.441Z,34.38
2022-09-25T06:18:24.085Z,34.41
2022-09-25T06:19:25.867Z,34.20
2022-09-25T06:20:27.742Z,34.07
2022-09-25T06:21:29.982Z,33.87
2022-09-25T06:22:32.316Z,34.13
2022-09-25T06:23:34.077Z,34.05
2022-09-25T06:24:35.847Z,34.34
2022-09-25T06:25:37.761Z,33.53
2022-09-25T06:26:40.744Z,33.75
2022-09-25T06:27:42.377Z,33.73
2022-09-25T06:28:44.164Z,33.83
2022-09-25T06:29:45.982Z,33.70
2022-09-25T06:30:47.934Z,33.75
2022-09-25T06:31:50.495Z,33.56
2022-09-25T06:33:00.009Z,33.50
2022-09-25T06:34:02.246Z,33.22
2022-09-25T06:35:04.954Z,33.13
2022-09-25T06:36:06.729Z,33.48
2022-09-25T06:37:08.933Z,33.39
2022-09-25T06:38:11.589Z,33.22
2022-09-25T06:39:13.332Z,33.10
2022-09-25T06:40:15.355Z,32.93
2022-09-25T06:41:17.071Z,33.08
2022-09-25T06:42:18.878Z,32.82
2022-09-25T06:43:20.539Z,33.02
2022-09-25T06:44:23.001Z,32.77
2022-09-25T06:45:26.821Z,32.95
2022-09-25T06:46:28.528Z,32.66
2022-09-25T06:47:30.283Z,32.76
2022-09-25T06:48:32.094Z,32.97
2022-09-25T06:49:33.988Z,32.76
2022-09-25T06:50:45.511Z,32.81
2022-09-25T06:51:47.822Z,32.30
2022-09-25T06:52:49.545Z,32.52
2022-09-25T06:53:54.777Z,32.77
2022-09-25T06:54:56.493Z,32.32
2022-09-25T06:56:00.045Z,32.45
2022-09-25T06:57:02.087Z,32.73
2022-09-25T06:58:06.015Z,32.41
2022-09-25T06:59:09.287Z,32.35
2022-09-25T07:00:11.682Z,32.35
2022-09-25T07:01:14.092Z,32.44
2022-09-25T07:02:34.284Z,32.38
2022-09-25T07:03:45.508Z,32.43
2022-09-25T07:04:51.164Z,32.54
2022-09-25T07:05:53.090Z,32.28
2022-09-25T07:06:58.589Z,32.34
2022-09-25T07:08:00.543Z,32.24
2022-09-25T07:09:04.028Z,32.43
2022-09-25T07:10:06.308Z,32.20
2022-09-25T07:11:08.137Z,32.19
2022-09-25T07:12:11.335Z,32.50
2022-09-25T07:13:13.127Z,32.31
2022-09-25T07:14:14.867Z,32.24
2022-09-25T07:15:16.992Z,32.20
2022-09-25T07:16:21.033Z,32.00
2022-09-25T07:17:22.868Z,32.20
2022-09-25T07:18:26.076Z,32.38
2022-09-25T07:19:28.061Z,32.27
2022-09-25T07:20:30.450Z,32.00
2022-09-25T07:21:32.450Z,32.14
2022-09-25T07:22:34.324Z,32.05
2022-09-25T07:23:36.573Z,32.05
2022-09-25T07:24:39.025Z,32.04
2022-09-25T07:25:41.107Z,31.99
2022-09-25T07:26:43.435Z,32.37
2022-09-25T07:27:45.823Z,31.74
2022-09-25T07:28:48.161Z,32.06
2022-09-25T07:29:49.893Z,32.20
2022-09-25T07:30:52.611Z,32.01
2022-09-25T07:31:54.398Z,32.25
2022-09-25T07:33:00.054Z,31.75
2022-09-25T07:34:08.866Z,32.11
2022-09-25T07:35:11.082Z,31.97
2022-09-25T07:36:13.929Z,31.88
2022-09-25T07:37:16.312Z,32.19
2022-09-25T07:38:18.791Z,31.97
2022-09-25T07:39:20.485Z,32.13
2022-09-25T07:40:22.271Z,32.34
2022-09-25T07:41:24.308Z,32.28
2022-09-25T07:42:26.222Z,32.30
2022-09-25T07:43:27.942Z,32.49
2022-09-25T07:44:36.280Z,32.24
2022-09-25T07:45:39.534Z,32.19
2022-09-25T07:46:44.510Z,32.34
2022-09-25T07:47:46.520Z,32.20
2022-09-25T07:48:49.657Z,32.10
2022-09-25T07:49:51.348Z,32.19
2022-09-25T07:50:54.403Z,32.18
2022-09-25T07:51:56.267Z,32.05
2022-09-25T07:52:58.758Z,32.21
2022-09-25T07:54:01.257Z,32.25
2022-09-25T07:55:03.102Z,31.98
2022-09-25T07:56:07.123Z,31.93
2022-09-25T07:57:09.435Z,31.88
2022-09-25T07:58:12.041Z,32.15
2022-09-25T07:59:13.821Z,32.33
2022-09-25T08:00:15.695Z,31.96
2022-09-25T08:01:17.555Z,32.10
2022-09-25T08:02:19.395Z,32.08
2022-09-25T08:03:21.936Z,31.99
2022-09-25T08:04:23.768Z,32.10
2022-09-25T08:05:26.898Z,31.95
2022-09-25T08:06:28.713Z,32.10
2022-09-25T08:07:30.520Z,32.09
2022-09-25T08:08:35.008Z,32.05
2022-09-25T08:09:36.799Z,32.02
2022-09-25T08:10:38.563Z,31.92
2022-09-25T08:11:40.324Z,31.98
2022-09-25T08:12:43.356Z,31.92
2022-09-25T08:13:45.934Z,31.85
2022-09-25T08:14:47.696Z,31.91
2022-09-25T08:15:49.459Z,31.94
2022-09-25T08:16:55.915Z,32.05
2022-09-25T08:17:57.774Z,31.96
2022-09-25T08:18:59.533Z,32.10
2022-09-25T08:20:01.399Z,31.98
2022-09-25T08:21:04.933Z,31.95
2022-09-25T08:22:06.822Z,32.13
2022-09-25T08:23:08.569Z,32.15
2022-09-25T08:24:10.958Z,32.24
2022-09-25T08:25:13.153Z,32.02
2022-09-25T08:26:15.846Z,32.14
2022-09-25T08:27:18.210Z,31.88
2022-09-25T08:28:19.880Z,31.89
2022-09-25T08:29:21.635Z,31.84
2022-09-25T08:30:23.433Z,31.90
2022-09-25T08:31:25.249Z,32.04
2022-09-25T08:32:27.026Z,32.00
2022-09-25T08:33:28.833Z,31.85
2022-09-25T08:34:46.954Z,31.75
2022-09-25T08:36:00.223Z,31.88
2022-09-25T08:37:01.931Z,31.87
2022-09-25T08:38:04.723Z,31.81
2022-09-25T08:39:06.491Z,31.80
2022-09-25T08:40:19.555Z,31.81
2022-09-25T08:41:33.567Z,31.89
2022-09-25T08:42:37.741Z,31.76
2022-09-25T08:43:57.622Z,31.90
2022-09-25T08:45:22.880Z,31.67
2022-09-25T08:46:59.293Z,31.53
2022-09-25T08:48:19.479Z,31.58
2022-09-25T08:49:26.381Z,31.81
2022-09-25T08:50:29.761Z,31.71
2022-09-25T08:51:38.959Z,31.79
2022-09-25T08:52:46.079Z,31.98
2022-09-25T08:53:48.380Z,32.05
2022-09-25T08:54:51.111Z,32.04
2022-09-25T08:56:12.141Z,31.89
2022-09-25T08:57:24.782Z,31.93
2022-09-25T08:58:33.915Z,31.93
2022-09-25T08:59:40.612Z,31.94
2022-09-25T09:00:43.860Z,31.72
2022-09-25T09:01:53.445Z,32.03
2022-09-25T09:02:58.245Z,31.83
2022-09-25T09:04:08.105Z,31.85
2022-09-25T09:05:22.429Z,32.15
2022-09-25T09:06:27.122Z,32.20
2022-09-25T09:07:39.207Z,32.22
2022-09-25T09:08:43.946Z,31.85
2022-09-25T09:09:55.118Z,32.26
2022-09-25T09:11:10.013Z,32.06
2022-09-25T09:12:23.691Z,31.97
2022-09-25T09:13:34.715Z,32.14
2022-09-25T09:14:44.975Z,31.96
2022-09-25T09:16:02.084Z,32.02
2022-09-25T09:17:18.178Z,31.84
2022-09-25T09:18:26.178Z,32.01
2022-09-25T09:19:28.029Z,32.36
2022-09-25T09:20:41.359Z,31.99
2022-09-25T09:22:00.948Z,32.21
2022-09-25T09:23:03.620Z,32.21
2022-09-25T09:24:16.122Z,31.93
2022-09-25T09:25:32.364Z,32.20
2022-09-25T09:26:34.060Z,31.90
2022-09-25T09:28:04.923Z,32.04
2022-09-25T09:29:53.672Z,32.18
2022-09-25T09:31:12.764Z,31.90
2022-09-25T09:32:17.574Z,32.07
2022-09-25T09:33:39.163Z,31.95
2022-09-25T09:35:06.273Z,31.98
2022-09-25T09:36:16.050Z,32.07
2022-09-25T09:37:41.310Z,31.89
2022-09-25T09:38:48.429Z,31.96
2022-09-25T09:40:29.740Z,32.03
2022-09-25T09:41:44.135Z,32.14
2022-09-25T09:43:13.305Z,31.92
2022-09-25T09:44:41.090Z,32.21
2022-09-25T09:46:25.852Z,31.89
2022-09-25T09:47:42.682Z,32.00
2022-09-25T09:49:10.346Z,31.82
2022-09-25T09:50:20.782Z,32.32
2022-09-25T09:51:32.364Z,32.00
2022-09-25T09:52:39.416Z,32.00
2022-09-25T09:53:46.560Z,32.13
2022-09-25T09:54:54.298Z,32.25
2022-09-25T09:56:07.391Z,32.06
2022-09-25T09:57:20.695Z,32.04
2022-09-25T09:58:30.293Z,32.25
2022-09-25T09:59:46.386Z,31.90
2022-09-25T10:00:52.502Z,31.98
2022-09-25T10:02:36.031Z,32.11
2022-09-25T10:03:39.410Z,32.13
2022-09-25T10:04:42.476Z,31.99
2022-09-25T10:05:48.679Z,32.06
2022-09-25T10:07:04.500Z,32.14
2022-09-25T10:08:06.411Z,32.12
2022-09-25T10:09:14.165Z,32.43
2022-09-25T10:10:17.512Z,32.01
2022-09-25T10:11:20.870Z,32.19
2022-09-25T10:12:29.114Z,32.08
2022-09-25T10:13:36.455Z,32.27
2022-09-25T10:14:43.102Z,32.04
2022-09-25T10:15:56.572Z,32.13
2022-09-25T10:16:58.792Z,32.12
2022-09-25T10:18:03.226Z,32.12
2022-09-25T10:19:20.629Z,32.00
2022-09-25T10:20:24.241Z,32.03
2022-09-25T10:21:30.487Z,32.32
2022-09-25T10:22:40.796Z,32.31
2022-09-25T10:23:52.710Z,32.12
2022-09-25T10:25:02.367Z,32.40
2022-09-25T10:26:23.127Z,32.14
2022-09-25T10:27:24.774Z,32.25
2022-09-25T10:28:36.027Z,32.22
2022-09-25T10:29:37.765Z,32.11
2022-09-25T10:30:45.950Z,32.12
2022-09-25T10:31:48.661Z,32.34
2022-09-25T10:33:15.555Z,32.05
2022-09-25T10:34:22.537Z,31.98
2022-09-25T10:35:28.980Z,32.20
2022-09-25T10:36:34.092Z,32.20
2022-09-25T10:37:35.983Z,32.19
2022-09-25T10:38:44.208Z,32.00
2022-09-25T10:40:01.893Z,32.31
2022-09-25T10:41:08.391Z,32.10
2022-09-25T10:42:41.162Z,32.16
2022-09-25T10:43:56.913Z,31.91
2022-09-25T10:44:58.655Z,32.15
2022-09-25T10:46:11.864Z,32.36
2022-09-25T10:47:38.198Z,32.34
2022-09-25T10:48:59.368Z,32.03
2022-09-25T10:50:12.535Z,32.13
2022-09-25T10:51:17.437Z,32.09
2022-09-25T10:52:22.297Z,32.27
2022-09-25T10:53:29.083Z,32.33
2022-09-25T10:54:30.929Z,32.24
2022-09-25T10:55:36.616Z,32.31
2022-09-25T10:56:39.594Z,32.31
2022-09-25T10:57:42.698Z,32.17
2022-09-25T10:58:48.084Z,32.48
2022-09-25T10:59:51.935Z,32.43
2022-09-25T11:00:57.930Z,32.33
2022-09-25T11:01:59.760Z,31.87
2022-09-25T11:03:05.747Z,32.56
2022-09-25T11:04:16.498Z,32.14
2022-09-25T11:05:22.043Z,32.05
2022-09-25T11:06:33.402Z,32.36
2022-09-25T11:07:35.175Z,32.31
2022-09-25T11:08:40.302Z,32.22
2022-09-25T11:09:44.990Z,32.18
2022-09-25T11:10:56.507Z,32.38
2022-09-25T11:12:26.431Z,32.23
2022-09-25T11:13:45.975Z,32.24
2022-09-25T11:14:59.013Z,32.02
2022-09-25T11:16:02.112Z,32.27
2022-09-25T11:17:06.861Z,32.02
2022-09-25T11:18:40.463Z,32.01
2022-09-25T11:19:42.240Z,32.05
2022-09-25T11:20:44.467Z,32.03
2022-09-25T11:21:57.079Z,32.09
2022-09-25T11:23:19.033Z,32.05
2022-09-25T11:24:44.002Z,32.19
2022-09-25T11:25:53.829Z,32.31
2022-09-25T11:27:14.496Z,32.00
2022-09-25T11:28:44.488Z,32.10
2022-09-25T11:29:54.637Z,31.86
2022-09-25T11:31:11.642Z,31.75
2022-09-25T11:32:24.437Z,32.00
2022-09-25T11:33:55.885Z,32.17
2022-09-25T11:35:27.998Z,31.90
2022-09-25T11:36:39.082Z,31.81
2022-09-25T11:37:54.820Z,31.90
2022-09-25T11:39:27.839Z,32.08
2022-09-25T11:40:57.479Z,31.87
2022-09-25T11:42:40.279Z,31.92
2022-09-25T11:43:59.611Z,31.62
2022-09-25T11:45:18.208Z,31.76
2022-09-25T11:46:34.005Z,32.01
2022-09-25T11:47:46.125Z,31.93
2022-09-25T11:49:17.288Z,31.99
2022-09-25T11:50:22.720Z,31.89
2022-09-25T11:51:41.020Z,32.13
2022-09-25T11:53:02.070Z,31.98
2022-09-25T11:54:32.761Z,32.04
2022-09-25T11:55:43.471Z,32.05
2022-09-25T11:56:48.224Z,32.13
2022-09-25T11:58:11.214Z,32.23
2022-09-25T11:59:13.623Z,32.30
2022-09-25T12:00:30.194Z,32.28
2022-09-25T12:01:36.858Z,32.36
2022-09-25T12:03:09.455Z,32.33
2022-09-25T12:04:55.848Z,32.21
2022-09-25T12:06:27.049Z,32.05
2022-09-25T12:07:28.718Z,31.97
2022-09-25T12:08:44.054Z,32.22
2022-09-25T12:10:04.235Z,32.20
2022-09-25T12:11:30.222Z,32.18
2022-09-25T12:12:59.402Z,32.21
2022-09-25T12:14:16.744Z,32.07
2022-09-25T12:15:51.205Z,32.22
2022-09-25T12:16:59.135Z,31.79
2022-09-25T12:18:10.797Z,32.44
2022-09-25T12:19:24.555Z,32.28
2022-09-25T12:20:50.217Z,32.31
2022-09-25T12:22:23.893Z,32.14
2022-09-25T12:23:43.561Z,32.21
2022-09-25T12:25:01.534Z,32.33
2022-09-25T12:26:09.000Z,32.10
2022-09-25T12:27:42.124Z,32.21
2022-09-25T12:29:26.089Z,32.18
2022-09-25T12:31:04.740Z,31.99
2022-09-25T12:32:20.585Z,32.27
2022-09-25T12:33:43.954Z,32.30
2022-09-25T12:35:13.130Z,32.25
2022-09-25T12:36:50.523Z,32.20
2022-09-25T12:37:57.212Z,32.21
2022-09-25T12:39:09.372Z,32.45
2022-09-25T12:40:26.917Z,32.45
2022-09-25T12:41:47.296Z,32.32
2022-09-25T12:42:52.034Z,32.45
2022-09-25T12:44:06.340Z,32.53
2022-09-25T12:45:32.288Z,32.29
2022-09-25T12:46:51.647Z,32.25
2022-09-25T12:47:53.334Z,32.37
2022-09-25T12:49:13.804Z,32.64
2022-09-25T12:50:29.401Z,32.45
2022-09-25T12:51:40.581Z,32.33
2022-09-25T12:52:53.715Z,32.43
2022-09-25T12:54:01.497Z,32.40
2022-09-25T12:55:13.743Z,32.67
2022-09-25T12:56:27.708Z,32.49
2022-09-25T12:58:07.804Z,32.45
2022-09-25T12:59:27.467Z,32.21
2022-09-25T13:00:32.970Z,32.38
2022-09-25T13:01:57.786Z,32.41
2022-09-25T13:03:12.196Z,32.20
2022-09-25T13:04:23.952Z,32.28
2022-09-25T13:05:45.436Z,32.36
2022-09-25T13:07:06.719Z,32.34
2022-09-25T13:08:20.384Z,32.43
2022-09-25T13:09:29.641Z,32.46
2022-09-25T13:10:38.489Z,32.33
2022-09-25T13:11:51.001Z,32.18
2022-09-25T13:12:56.494Z,32.51
2022-09-25T13:13:59.533Z,32.49
2022-09-25T13:15:14.139Z,32.44
2022-09-25T13:16:16.599Z,32.40
2022-09-25T13:17:18.786Z,32.44
2022-09-25T13:18:23.138Z,32.97
2022-09-25T13:19:27.735Z,32.46
2022-09-25T13:20:37.076Z,32.59
2022-09-25T13:21:43.096Z,32.48
2022-09-25T13:22:44.816Z,32.38
2022-09-25T13:23:50.388Z,32.63
2022-09-25T13:25:14.156Z,32.46
2022-09-25T13:26:19.134Z,32.41
2022-09-25T13:27:23.569Z,32.52
2022-09-25T13:28:29.287Z,32.51
2022-09-25T13:29:39.108Z,32.48
2022-09-25T13:30:59.640Z,32.39
2022-09-25T13:32:23.309Z,32.23
2022-09-25T13:33:25.622Z,32.45
2022-09-25T13:34:27.410Z,32.05
2022-09-25T13:35:32.078Z,32.16
2022-09-25T13:36:46.848Z,32.13
2022-09-25T13:37:51.519Z,32.36
2022-09-25T13:39:16.648Z,32.22
2022-09-25T13:40:40.053Z,32.29
2022-09-25T13:42:12.621Z,31.99
2022-09-25T13:43:30.534Z,32.25
2022-09-25T13:44:42.125Z,32.20
2022-09-25T13:45:44.157Z,32.11
2022-09-25T13:46:45.996Z,32.26
2022-09-25T13:48:12.678Z,32.42
2022-09-25T13:49:34.342Z,32.03
2022-09-25T13:50:41.537Z,32.31
2022-09-25T13:51:45.104Z,32.29
2022-09-25T13:52:46.794Z,32.20
2022-09-25T13:54:04.533Z,32.06
2022-09-25T13:55:21.415Z,32.13
2022-09-25T13:56:29.609Z,32.27
2022-09-25T13:57:58.514Z,32.20
2022-09-25T13:59:21.000Z,32.10
2022-09-25T14:00:23.489Z,31.96
2022-09-25T14:01:40.246Z,32.17
2022-09-25T14:02:46.443Z,32.01
2022-09-25T14:03:50.124Z,31.86
2022-09-25T14:04:52.082Z,32.10
2022-09-25T14:05:53.865Z,32.19
2022-09-25T14:07:04.808Z,32.04
2022-09-25T14:08:12.710Z,32.13
2022-09-25T14:09:19.867Z,32.22
2022-09-25T14:10:23.062Z,32.18
2022-09-25T14:11:31.584Z,32.33
2022-09-25T14:12:42.756Z,32.04
2022-09-25T14:13:46.756Z,32.16
2022-09-25T14:14:56.012Z,32.29
2022-09-25T14:16:01.893Z,32.12
2022-09-25T14:17:04.431Z,32.29
2022-09-25T14:18:37.803Z,32.06
2022-09-25T14:19:43.607Z,31.89
2022-09-25T14:20:48.961Z,31.77
2022-09-25T14:21:52.286Z,32.13
2022-09-25T14:22:56.368Z,31.88
2022-09-25T14:24:12.584Z,31.91
2022-09-25T14:25:38.431Z,31.81
2022-09-25T14:26:45.399Z,32.03
2022-09-25T14:27:53.019Z,31.96
2022-09-25T14:28:57.196Z,31.88
2022-09-25T14:30:14.032Z,31.84
2022-09-25T14:31:34.982Z,31.50
2022-09-25T14:32:56.281Z,32.05
2022-09-25T14:34:28.302Z,31.71
2022-09-25T14:35:33.187Z,31.94
2022-09-25T14:36:40.595Z,32.15
2022-09-25T14:38:16.390Z,31.98
2022-09-25T14:39:30.282Z,31.84
2022-09-25T14:40:38.337Z,31.58
2022-09-25T14:41:53.109Z,31.94